Time;durP1;ratioP1;P1;durP2;ratioP2;P2;SDS_P1;SDS_P2;PMS_P1;PMS_P2;Temp;Humidity;BMP_temperature;BMP_pressure;BME280_temperature;BME280_humidity;BME280_pressure;Samples;Min_cycle;Max_cycle;Signal;HPM_P1;HPM_P2
2022/10/19 00:01:25;;;;;;;;;30.75;27.25;;;;;16.93;34.13;99947.19;5067384;28;9009;-76
2022/10/19 00:03:55;;;;;;;;;24.75;24.50;;;;;16.91;34.11;99940.25;5066659;28;8894;-78
2022/10/19 00:06:26;;;;;;;;;25.75;25.25;;;;;16.90;34.28;99949.91;5033381;28;9612;-78
2022/10/19 00:08:58;;;;;;;;;27.75;25.50;;;;;16.89;34.42;99944.69;5031660;28;8911;-76
2022/10/19 00:11:28;;;;;;;;;32.25;29.00;;;;;16.90;34.20;99943.75;5049741;28;8883;-78
2022/10/19 00:13:59;;;;;;;;;24.25;23.00;;;;;16.92;34.20;99942.00;5049181;28;10114;-78
2022/10/19 00:16:30;;;;;;;;;18.50;17.00;;;;;16.92;34.25;99948.13;5050782;28;8934;-81
2022/10/19 00:19:01;;;;;;;;;27.00;26.25;;;;;16.89;33.90;99940.25;5049125;28;8941;-79
2022/10/19 00:21:30;;;;;;;;;25.00;25.00;;;;;16.38;35.05;99938.56;5015760;28;8865;-80
2022/10/19 00:23:59;;;;;;;;;28.25;26.25;;;;;16.17;35.66;99947.69;5048209;28;9695;-78
2022/10/19 00:26:27;;;;;;;;;30.75;29.50;;;;;16.14;36.98;99945.13;5050284;28;8881;-79
2022/10/19 00:28:58;;;;;;;;;36.75;32.50;;;;;15.86;37.92;99947.34;4981907;28;8857;-79
2022/10/19 00:31:27;;;;;;;;;34.00;32.75;;;;;15.90;38.31;99943.78;5031529;28;8952;-77
2022/10/19 00:33:57;;;;;;;;;30.25;30.00;;;;;15.58;38.35;99936.34;5027085;28;8855;-77
2022/10/19 00:36:28;;;;;;;;;31.50;30.25;;;;;15.56;38.04;99941.63;5029551;28;8875;-78
2022/10/19 00:38:57;;;;;;;;;36.00;32.50;;;;;15.38;38.82;99937.47;5030150;28;8972;-79
2022/10/19 00:41:28;;;;;;;;;37.00;33.75;;;;;15.34;38.42;99937.56;5026887;28;8855;-78
2022/10/19 00:44:02;;;;;;;;;28.75;27.50;;;;;15.54;37.83;99934.66;5030602;28;8845;-77
2022/10/19 00:46:32;;;;;;;;;28.25;27.00;;;;;15.13;38.17;99941.34;5028618;28;8859;-76
2022/10/19 00:49:06;;;;;;;;;26.50;24.50;;;;;14.92;38.37;99939.84;5041976;28;8867;-77
2022/10/19 00:51:42;;;;;;;;;23.00;20.75;;;;;15.28;36.93;99935.03;5031117;28;8939;-77
2022/10/19 00:54:12;;;;;;;;;27.25;23.25;;;;;15.48;36.66;99930.38;5044643;28;8878;-78
2022/10/19 00:56:43;;;;;;;;;29.75;27.50;;;;;15.59;37.29;99927.56;5028972;28;8856;-78
2022/10/19 00:59:16;;;;;;;;;32.50;30.50;;;;;15.53;38.00;99920.63;5044811;28;8864;-77
2022/10/19 01:01:46;;;;;;;;;24.75;23.50;;;;;15.22;38.95;99930.72;5027490;28;8856;-78
2022/10/19 01:04:15;;;;;;;;;34.50;32.25;;;;;15.24;39.30;99942.06;5012916;28;8848;-76
2022/10/19 01:06:44;;;;;;;;;41.00;34.00;;;;;15.38;39.72;99934.00;5042814;28;8888;-78
2022/10/19 01:09:13;;;;;;;;;40.75;36.00;;;;;15.46;39.83;99934.75;5014099;28;8870;-77
2022/10/19 01:11:53;;;;;;;;;38.50;35.00;;;;;15.39;39.88;99936.59;5028077;28;8858;-77
2022/10/19 01:14:33;;;;;;;;;37.00;34.25;;;;;15.38;40.10;99932.22;5045090;28;8872;-77
2022/10/19 01:17:11;;;;;;;;;29.50;27.75;;;;;15.49;40.02;99929.47;5048123;28;8878;-78
2022/10/19 01:20:08;;;;;;;;;34.25;32.25;;;;;15.65;39.31;99926.59;5034249;28;8854;-77
2022/10/19 01:22:56;;;;;;;;;34.25;32.00;;;;;15.70;39.24;99922.16;5010206;28;8943;-78
2022/10/19 01:25:39;;;;;;;;;29.50;28.00;;;;;15.73;38.77;99919.47;5010584;28;8952;-76
2022/10/19 01:28:24;;;;;;;;;32.50;32.00;;;;;15.75;38.87;99917.72;4990353;28;8875;-77
2022/10/19 01:31:01;;;;;;;;;29.25;26.25;;;;;15.64;38.89;99919.63;4987939;28;8871;-79
2022/10/19 01:33:45;;;;;;;;;28.75;28.00;;;;;15.68;38.53;99916.91;5004882;28;8897;-78
2022/10/19 01:36:23;;;;;;;;;34.00;32.00;;;;;15.64;39.23;99914.34;4972345;28;8875;-78
2022/10/19 01:38:59;;;;;;;;;30.00;26.25;;;;;15.61;38.61;99917.88;5004706;28;9140;-78
2022/10/19 01:41:35;;;;;;;;;31.50;30.00;;;;;15.67;38.60;99914.28;4989093;28;8866;-77
2022/10/19 01:44:11;;;;;;;;;26.50;26.50;;;;;15.66;38.74;99910.81;4989102;28;8877;-77
2022/10/19 01:46:44;;;;;;;;;32.00;30.25;;;;;15.67;38.88;99912.56;5005495;28;8996;-77
2022/10/19 01:49:20;;;;;;;;;32.25;30.75;;;;;15.65;39.07;99906.47;5005704;28;8916;-78
2022/10/19 01:51:53;;;;;;;;;33.00;30.50;;;;;15.60;39.21;99914.41;5003309;28;8877;-79
2022/10/19 01:54:25;;;;;;;;;32.75;32.00;;;;;15.56;39.72;99911.84;5025842;28;9532;-78
2022/10/19 01:56:56;;;;;;;;;39.00;32.50;;;;;15.55;39.54;99910.97;4992748;28;8861;-80
2022/10/19 01:59:26;;;;;;;;;40.00;35.50;;;;;15.53;39.88;99911.88;5035599;28;8853;-78
2022/10/19 02:01:58;;;;;;;;;40.50;35.50;;;;;15.52;40.17;99910.13;5013403;28;8857;-78
2022/10/19 02:04:27;;;;;;;;;38.50;35.50;;;;;15.46;40.65;99910.22;5047678;28;8863;-76
2022/10/19 02:06:57;;;;;;;;;40.50;35.75;;;;;15.40;40.63;99906.78;5030644;28;8852;-79
2022/10/19 02:09:25;;;;;;;;;32.75;30.25;;;;;15.36;40.17;99906.88;5030848;28;8879;-79
2022/10/19 02:12:00;;;;;;;;;40.25;34.00;;;;;15.32;40.37;99907.81;5047350;28;8954;-79
2022/10/19 02:14:32;;;;;;;;;33.50;32.25;;;;;15.26;40.74;99907.91;5048890;28;8849;-77
2022/10/19 02:17:08;;;;;;;;;32.25;28.75;;;;;15.27;40.82;99910.47;5047647;28;8867;-77
2022/10/19 02:19:36;;;;;;;;;38.75;35.75;;;;;15.17;41.07;99908.88;5050627;28;8926;-78
2022/10/19 02:22:06;;;;;;;;;37.50;34.00;;;;;15.13;41.64;99908.06;5049834;28;9599;-79
2022/10/19 02:24:34;;;;;;;;;39.25;35.25;;;;;15.09;41.89;99913.38;5034697;28;8853;-79
2022/10/19 02:27:05;;;;;;;;;36.00;33.00;;;;;15.05;41.98;99920.44;5047012;28;9642;-78
2022/10/19 02:29:34;;;;;;;;;38.00;36.00;;;;;15.02;42.25;99921.31;5030908;28;8861;-76
2022/10/19 02:32:05;;;;;;;;;46.75;38.25;;;;;15.00;42.77;99914.34;5048500;28;8864;-77
2022/10/19 02:34:35;;;;;;;;;47.75;39.75;;;;;14.91;43.01;99909.22;5048005;28;8872;-77
2022/10/19 02:37:04;;;;;;;;;45.50;40.50;;;;;14.89;43.29;99905.75;5047729;28;8975;-78
2022/10/19 02:39:33;;;;;;;;;47.00;40.00;;;;;14.89;43.47;99905.75;5048175;28;8865;-79
2022/10/19 02:42:09;;;;;;;;;53.75;44.25;;;;;14.88;44.22;99914.53;5046885;28;8999;-78
2022/10/19 02:44:42;;;;;;;;;56.00;45.50;;;;;14.85;44.55;99911.94;5047262;28;8880;-78
2022/10/19 02:47:18;;;;;;;;;55.75;45.25;;;;;14.85;45.06;99907.53;5030584;28;8855;-79
2022/10/19 02:49:49;;;;;;;;;61.25;49.00;;;;;14.80;45.02;99907.59;5016184;28;8896;-77
2022/10/19 02:52:18;;;;;;;;;58.25;48.25;;;;;14.71;45.42;99902.47;5051002;28;9691;-77
2022/10/19 02:54:46;;;;;;;;;58.00;49.25;;;;;14.68;45.54;99899.84;5017114;28;8890;-79
2022/10/19 02:57:17;;;;;;;;;58.75;49.25;;;;;14.62;45.88;99902.56;5050127;28;8857;-79
2022/10/19 02:59:46;;;;;;;;;63.33;50.00;;;;;14.50;46.37;99897.41;5066727;28;8860;-78
2022/10/19 03:02:18;;;;;;;;;59.75;48.00;;;;;14.47;46.58;99905.31;5050155;28;9040;-79
2022/10/19 03:04:47;;;;;;;;;59.75;49.25;;;;;14.43;46.69;99905.34;5033445;28;8861;-77
2022/10/19 03:07:18;;;;;;;;;65.25;50.00;;;;;14.27;47.37;99902.91;5033445;28;8857;-78
2022/10/19 03:09:47;;;;;;;;;64.00;50.67;;;;;14.16;48.47;99910.88;5048873;28;8845;-77
2022/10/19 03:12:16;;;;;;;;;62.67;51.00;;;;;14.16;48.08;99911.75;5033237;28;9007;-79
2022/10/19 03:14:45;;;;;;;;;64.00;51.33;;;;;14.21;48.34;99916.94;5049880;28;8956;-78
2022/10/19 03:17:14;;;;;;;;;69.00;54.00;;;;;14.13;48.77;99922.25;5050034;28;9155;-79
2022/10/19 03:19:44;;;;;;;;;65.33;52.33;;;;;14.15;49.14;99932.75;5016011;28;9237;-78
2022/10/19 03:22:13;;;;;;;;;65.33;54.00;;;;;14.24;48.76;99935.28;5032837;28;9097;-77
2022/10/19 03:24:42;;;;;;;;;66.67;53.00;;;;;14.27;48.57;99929.13;5050299;28;9251;-79
2022/10/19 03:27:11;;;;;;;;;65.67;53.00;;;;;14.28;49.45;99937.00;4999833;28;9297;-77
2022/10/19 03:29:39;;;;;;;;;70.50;57.50;;;;;14.28;49.64;99937.00;5051171;28;9481;-78
2022/10/19 03:32:08;;;;;;;;;69.33;52.33;;;;;14.31;49.50;99942.22;5049696;28;9400;-78
2022/10/19 03:34:36;;;;;;;;;68.67;55.67;;;;;14.33;49.61;99943.06;5053140;28;9191;-78
2022/10/19 03:37:07;;;;;;;;;69.50;56.75;;;;;14.27;50.56;99930.00;5054493;28;10377;-75
2022/10/19 03:39:36;;;;;;;;;68.00;55.00;;;;;14.27;50.61;99934.38;5049524;28;9528;-78
2022/10/19 03:42:05;;;;;;;;;73.75;57.75;;;;;14.26;50.80;99930.03;5048739;28;9637;-78
2022/10/19 03:44:33;;;;;;;;;83.25;71.25;;;;;14.26;50.96;99930.88;5050509;28;9810;-78
2022/10/19 03:47:02;;;;;;;;;74.75;60.00;;;;;14.28;51.16;99916.00;5050345;28;10504;-80
2022/10/19 03:49:30;;;;;;;;;74.50;59.50;;;;;14.29;51.08;99923.00;5050854;28;9891;-78
2022/10/19 03:52:05;;;;;;;;;72.00;58.00;;;;;14.25;51.85;99929.13;5016947;28;9643;-76
2022/10/19 03:54:34;;;;;;;;;71.25;57.50;;;;;14.25;52.01;99926.50;5050123;28;10452;-76
2022/10/19 03:57:03;;;;;;;;;71.50;58.00;;;;;14.23;52.27;99925.66;5049427;28;9784;-79
2022/10/19 03:59:32;;;;;;;;;80.00;66.50;;;;;14.19;53.07;99923.97;5050041;28;9833;-77
2022/10/19 04:02:00;;;;;;;;;76.75;60.50;;;;;14.17;52.99;99923.09;5047878;28;10461;-79
2022/10/19 04:04:29;;;;;;;;;75.75;60.00;;;;;14.16;53.42;99924.00;5014937;28;10042;-80
2022/10/19 04:06:58;;;;;;;;;77.75;63.75;;;;;14.11;53.67;99921.41;5050048;28;10135;-78
2022/10/19 04:09:28;;;;;;;;;78.25;63.75;;;;;14.17;53.50;99917.84;5032259;28;10150;-77
2022/10/19 04:11:57;;;;;;;;;81.25;64.25;;;;;13.97;54.71;99918.91;5050524;28;9922;-77
2022/10/19 04:14:25;;;;;;;;;76.50;61.00;;;;;13.97;55.23;99916.28;5030666;28;11004;-79
2022/10/19 04:17:09;;;;;;;;;82.75;67.25;;;;;13.91;55.60;99915.47;5048721;28;10091;-78
2022/10/19 04:19:37;;;;;;;;;80.75;67.25;;;;;13.92;56.08;99915.44;5048678;28;10358;-77
2022/10/19 04:22:06;;;;;;;;;84.25;72.75;;;;;13.93;56.12;99913.69;5048498;28;10254;-79
2022/10/19 04:24:36;;;;;;;;;89.50;80.00;;;;;13.99;55.54;99917.16;5049174;28;11557;-77
2022/10/19 04:27:05;;;;;;;;;82.50;69.50;;;;;14.06;55.63;99917.09;5029701;28;11339;-79
2022/10/19 04:29:33;;;;;;;;;84.50;68.75;;;;;14.11;56.27;99912.69;5026927;28;10733;-77
2022/10/19 04:32:02;;;;;;;;;85.50;73.50;;;;;14.13;56.97;99921.41;5042905;28;11765;-77
2022/10/19 04:34:30;;;;;;;;;86.75;74.50;;;;;14.16;56.69;99921.38;5026650;28;10763;-77
2022/10/19 04:37:02;;;;;;;;;116.50;107.00;;;;;14.20;57.00;99923.09;5030846;28;10936;-78
2022/10/19 04:39:31;;;;;;;;;91.00;82.75;;;;;14.22;57.39;99918.69;5026371;28;11794;-78
2022/10/19 04:42:01;;;;;;;;;119.75;106.25;;;;;14.26;57.64;99916.91;5010734;28;12116;-79
2022/10/19 04:44:29;;;;;;;;;91.75;79.00;;;;;14.28;57.39;99904.66;5029664;28;11655;-78
2022/10/19 04:46:58;;;;;;;;;86.75;76.25;;;;;14.29;57.18;99922.09;5010410;28;11724;-76
2022/10/19 04:49:26;;;;;;;;;84.75;74.75;;;;;14.29;57.64;99914.25;5028368;28;10865;-79
2022/10/19 04:51:55;;;;;;;;;87.25;77.75;;;;;14.26;57.78;99923.03;4995799;28;10806;-81
2022/10/19 04:54:24;;;;;;;;;83.50;68.75;;;;;14.26;57.66;99928.25;5029401;28;10956;-76
2022/10/19 04:56:53;;;;;;;;;84.25;71.25;;;;;14.26;58.29;99923.03;5034567;28;10751;-78
2022/10/19 04:59:22;;;;;;;;;84.75;74.50;;;;;14.14;59.39;99926.63;5037715;28;10800;-80
2022/10/19 05:01:51;;;;;;;;;85.25;72.25;;;;;14.19;58.92;99924.81;5040818;28;10599;-78
2022/10/19 05:04:20;;;;;;;;;86.00;73.00;;;;;14.22;58.36;99922.19;5037144;28;10757;-80
2022/10/19 05:06:49;;;;;;;;;83.75;70.75;;;;;14.24;58.47;99919.53;5027136;28;10493;-77
2022/10/19 05:09:17;;;;;;;;;85.25;69.00;;;;;14.27;58.75;99911.63;5011889;28;10635;-79
2022/10/19 05:11:46;;;;;;;;;86.00;70.50;;;;;14.18;59.44;99911.75;5030073;28;10626;-78
2022/10/19 05:14:14;;;;;;;;;87.75;75.00;;;;;14.15;59.67;99917.88;5027047;28;10512;-79
2022/10/19 05:16:45;;;;;;;;;86.00;71.25;;;;;14.19;59.62;99918.72;5042444;28;10633;-78
2022/10/19 05:19:14;;;;;;;;;84.25;70.75;;;;;14.23;59.49;99920.41;5027442;28;10575;-78
2022/10/19 05:21:42;;;;;;;;;82.50;70.75;;;;;14.29;59.66;99919.47;5029217;28;10815;-79
2022/10/19 05:24:13;;;;;;;;;85.50;68.50;;;;;14.35;59.02;99908.97;5030129;28;10551;-79
2022/10/19 05:26:42;;;;;;;;;84.00;70.75;;;;;14.33;59.84;99914.22;5029973;28;10500;-77
2022/10/19 05:29:12;;;;;;;;;85.00;73.00;;;;;14.38;59.36;99907.13;5026787;28;10666;-79
2022/10/19 05:31:42;;;;;;;;;86.00;70.75;;;;;14.32;59.96;99895.84;5047483;28;10426;-78
2022/10/19 05:34:12;;;;;;;;;84.25;73.00;;;;;14.25;60.62;99897.66;5031352;28;10734;-79
2022/10/19 05:36:41;;;;;;;;;83.75;70.50;;;;;14.32;60.49;99901.97;5038811;28;10611;-80
2022/10/19 05:39:13;;;;;;;;;79.50;64.50;;;;;14.33;60.48;99903.72;5047335;28;10742;-78
2022/10/19 05:41:43;;;;;;;;;81.75;63.75;;;;;14.39;60.21;99903.66;5048772;28;10526;-77
2022/10/19 05:44:15;;;;;;;;;82.50;68.75;;;;;14.28;61.33;99909.91;5037087;28;10438;-76
2022/10/19 05:46:44;;;;;;;;;85.25;71.75;;;;;14.39;60.85;99914.16;5027759;28;10387;-77
2022/10/19 05:49:15;;;;;;;;;81.75;65.50;;;;;14.49;60.49;99924.56;5028072;28;10232;-78
2022/10/19 05:51:44;;;;;;;;;81.75;69.75;;;;;14.50;60.54;99921.03;5045793;28;10260;-75
2022/10/19 05:54:14;;;;;;;;;81.00;65.25;;;;;14.51;60.80;99922.78;5044987;28;10040;-77
2022/10/19 05:56:43;;;;;;;;;77.00;62.00;;;;;14.60;60.06;99923.56;5041542;28;10235;-77
2022/10/19 05:59:16;;;;;;;;;82.25;69.00;;;;;14.71;59.82;99922.59;5046703;28;10310;-75
2022/10/19 06:01:45;;;;;;;;;84.50;72.00;;;;;14.86;59.04;99934.66;5047255;28;10223;-78
2022/10/19 06:04:15;;;;;;;;;82.50;68.25;;;;;14.66;60.27;99934.91;5046862;28;10429;-77
2022/10/19 06:06:44;;;;;;;;;78.75;61.75;;;;;14.77;59.57;99944.38;5046221;28;10044;-76
2022/10/19 06:09:13;;;;;;;;;77.50;61.25;;;;;14.87;58.96;99942.53;5024281;28;10229;-74
2022/10/19 06:11:42;;;;;;;;;80.75;65.50;;;;;14.97;58.95;99943.28;5036719;28;10207;-75
2022/10/19 06:14:13;;;;;;;;;77.50;62.25;;;;;14.99;59.05;99950.25;5046524;28;10099;-74
2022/10/19 06:16:44;;;;;;;;;81.50;66.25;;;;;15.15;58.56;99948.31;5047053;28;10149;-75
2022/10/19 06:19:15;;;;;;;;;77.00;64.25;;;;;15.28;58.01;99953.41;5044790;28;10262;-78
2022/10/19 06:21:45;;;;;;;;;81.25;67.25;;;;;15.45;57.24;99947.94;4980687;28;10501;-74
2022/10/19 06:24:14;;;;;;;;;77.75;63.75;;;;;15.60;57.09;99943.31;5047370;28;10411;-76
2022/10/19 06:26:42;;;;;;;;;76.25;60.25;;;;;15.55;57.25;99945.13;5033786;28;10167;-74
2022/10/19 06:29:11;;;;;;;;;75.25;59.25;;;;;15.71;56.65;99945.78;5047219;28;10299;-73
2022/10/19 06:31:40;;;;;;;;;78.50;64.25;;;;;15.67;56.83;99952.00;5053775;28;10159;-75
2022/10/19 06:34:08;;;;;;;;;79.50;65.00;;;;;15.76;56.69;99957.16;5050221;28;10017;-76
2022/10/19 06:36:38;;;;;;;;;75.75;59.00;;;;;15.64;56.92;99967.81;5036776;28;9884;-76
2022/10/19 06:39:07;;;;;;;;;74.25;58.25;;;;;15.86;56.27;99963.13;5049780;28;9880;-77
2022/10/19 06:41:36;;;;;;;;;73.50;56.75;;;;;16.05;55.73;99960.19;5043337;28;9762;-74
2022/10/19 06:44:18;;;;;;;;;72.50;58.50;;;;;16.06;55.70;99949.63;5044064;28;9822;-75
2022/10/19 06:46:47;;;;;;;;;69.67;55.67;;;;;15.88;56.49;99961.34;5033675;28;9538;-74
2022/10/19 06:49:16;;;;;;;;;74.00;58.25;;;;;16.11;55.81;99954.84;5049383;28;9467;-75
2022/10/19 06:51:46;;;;;;;;;72.25;57.75;;;;;16.11;55.88;99957.47;5049516;28;9508;-76
2022/10/19 06:54:14;;;;;;;;;72.50;56.75;;;;;16.32;55.07;99953.59;5050695;28;9845;-75
2022/10/19 06:56:43;;;;;;;;;69.67;55.00;;;;;16.48;54.79;99949.81;5048536;28;9531;-76
2022/10/19 06:59:12;;;;;;;;;68.25;55.25;;;;;16.62;54.23;99949.53;5016100;28;9492;-75
2022/10/19 07:01:42;;;;;;;;;70.00;55.25;;;;;16.55;54.66;99943.50;5050808;28;9408;-76
2022/10/19 07:04:10;;;;;;;;;71.33;56.00;;;;;16.67;54.23;99955.59;5050644;28;9622;-74
2022/10/19 07:06:39;;;;;;;;;70.67;55.67;;;;;16.69;54.52;99953.81;5050853;28;9411;-75
2022/10/19 07:09:09;;;;;;;;;68.00;54.33;;;;;16.80;54.32;99961.47;5050749;28;9432;-74
2022/10/19 07:11:38;;;;;;;;;67.33;54.67;;;;;16.02;56.53;99962.88;5015205;28;9377;-73
2022/10/19 07:14:13;;;;;;;;;71.50;55.50;;;;;15.87;56.81;99970.13;5032912;28;9359;-72
2022/10/19 07:16:41;;;;;;;;;65.67;53.33;;;;;16.25;56.09;99968.63;5049733;28;9779;-76
2022/10/19 07:19:10;;;;;;;;;70.75;56.00;;;;;16.49;55.59;99979.63;5050351;28;9339;-75
2022/10/19 07:21:40;;;;;;;;;73.25;59.75;;;;;16.14;56.40;99966.19;5050947;28;9585;-77
2022/10/19 07:24:10;;;;;;;;;71.00;56.00;;;;;16.51;55.49;99964.69;5050050;28;9882;-75
2022/10/19 07:26:39;;;;;;;;;71.25;57.50;;;;;16.34;55.73;99971.09;5032024;28;9309;-78
2022/10/19 07:29:07;;;;;;;;;63.33;52.33;;;;;16.41;55.87;99966.59;5032094;28;9581;-76
2022/10/19 07:31:37;;;;;;;;;73.00;56.00;;;;;16.62;55.01;99967.13;5049347;28;9412;-75
2022/10/19 07:34:05;;;;;;;;;68.00;55.33;;;;;16.52;55.59;99971.66;5049763;28;9623;-74
2022/10/19 07:36:35;;;;;;;;;69.67;55.67;;;;;16.62;55.19;99964.50;5048473;28;9347;-75
2022/10/19 07:39:06;;;;;;;;;66.33;51.67;;;;;16.47;56.02;99957.75;5050603;28;9323;-72
2022/10/19 07:41:36;;;;;;;;;67.67;54.33;;;;;16.86;54.84;99952.63;5049443;28;9263;-72
2022/10/19 07:44:05;;;;;;;;;62.67;51.00;;;;;17.28;53.49;99940.34;5048188;28;9238;-73
2022/10/19 07:46:37;;;;;;;;;69.75;56.00;;;;;16.87;54.79;99952.59;5049803;28;9269;-73
2022/10/19 07:49:09;;;;;;;;;67.33;54.00;;;;;16.97;54.17;99953.28;5014331;28;9480;-73
2022/10/19 07:51:39;;;;;;;;;65.33;51.33;;;;;17.30;53.83;99940.31;5049628;28;9168;-72
2022/10/19 07:54:08;;;;;;;;;65.33;51.00;;;;;17.22;53.86;99934.31;5049383;28;9161;-72
2022/10/19 07:56:38;;;;;;;;;65.67;52.33;;;;;17.50;52.87;99935.47;5049379;28;9403;-75
2022/10/19 07:59:06;;;;;;;;;65.33;53.33;;;;;17.81;51.65;99926.84;5045294;28;9102;-77
2022/10/19 08:01:41;;;;;;;;;65.00;53.00;;;;;17.98;51.35;99930.88;5050014;28;9327;-79
2022/10/19 08:04:09;;;;;;;;;64.67;51.00;;;;;18.08;51.03;99929.72;5048016;28;9222;-77
2022/10/19 08:06:58;;;;;;;;;67.00;54.33;;;;;18.10;51.44;99920.84;5054862;28;9209;-77
2022/10/19 08:09:27;;;;;;;;;64.00;50.33;;;;;18.26;50.36;99931.00;5050462;28;9353;-77
2022/10/19 08:12:17;;;;;;;;;65.33;50.33;;;;;18.36;49.97;99921.97;5050153;28;9956;-76
2022/10/19 08:14:46;;;;;;;;;66.67;53.67;;;;;18.04;50.93;99926.28;5066829;28;9200;-79
2022/10/19 08:17:16;;;;;;;;;68.00;55.00;;;;;17.48;52.81;99921.44;5050344;28;9401;-78
2022/10/19 08:19:45;;;;;;;;;51.00;40.33;;;;;17.68;51.69;99917.47;5026246;28;9513;-78
2022/10/19 08:22:14;;;;;;;;;67.00;54.00;;;;;17.52;52.34;99922.22;5026537;28;9426;-78
2022/10/19 08:24:43;;;;;;;;;66.33;52.00;;;;;18.02;51.66;99921.97;5010096;28;9434;-77
2022/10/19 08:27:13;;;;;;;;;65.33;50.33;;;;;18.07;51.49;99928.88;4993461;28;9338;-79
2022/10/19 08:29:43;;;;;;;;;67.00;52.67;;;;;17.40;52.72;99933.94;5010759;28;9112;-77
2022/10/19 08:32:12;;;;;;;;;65.00;50.67;;;;;17.61;52.77;99929.06;5026748;28;9101;-77
2022/10/19 08:34:41;;;;;;;;;67.00;53.33;;;;;17.72;52.09;99929.69;5025933;28;9237;-78
2022/10/19 08:37:10;;;;;;;;;67.33;54.00;;;;;17.80;52.24;99927.72;5024638;28;9264;-77
2022/10/19 08:39:58;;;;;;;;;67.00;54.33;;;;;18.17;50.93;99918.94;5006533;28;9397;-78
2022/10/19 08:42:40;;;;;;;;;67.00;52.33;;;;;18.48;50.33;99924.25;4990006;28;9283;-76
2022/10/19 08:45:26;;;;;;;;;65.67;53.67;;;;;18.22;51.38;99921.44;4957647;28;9277;-76
2022/10/19 08:48:05;;;;;;;;;67.33;54.00;;;;;18.53;50.86;99918.88;4960867;28;9199;-77
2022/10/19 08:50:39;;;;;;;;;64.33;50.00;;;;;18.76;50.15;99920.88;4974885;28;9426;-77
2022/10/19 08:53:13;;;;;;;;;66.00;53.00;;;;;18.46;50.35;99927.88;5013067;28;9182;-77
2022/10/19 08:55:53;;;;;;;;;65.00;52.00;;;;;17.89;52.27;99929.31;5028108;28;9181;-77
2022/10/19 08:58:39;;;;;;;;;66.33;53.33;;;;;17.28;54.27;99939.47;5048496;28;9185;-77
2022/10/19 09:01:15;;;;;;;;;65.67;52.00;;;;;17.42;55.07;99931.25;5028407;28;9340;-80
2022/10/19 09:03:50;;;;;;;;;69.00;55.75;;;;;17.61;54.70;99927.28;5031576;28;10018;-79
2022/10/19 09:06:29;;;;;;;;;67.50;54.75;;;;;17.37;54.77;99928.72;5031586;28;9691;-76
2022/10/19 09:08:58;;;;;;;;;65.33;53.33;;;;;17.08;56.26;99919.69;5031048;28;9566;-77
2022/10/19 09:11:31;;;;;;;;;67.33;53.00;;;;;17.30;55.78;99916.59;5065013;28;9432;-79
2022/10/19 09:14:05;;;;;;;;;65.67;53.00;;;;;17.73;55.53;99918.22;5049101;28;9452;-80
2022/10/19 09:16:35;;;;;;;;;62.33;50.67;;;;;18.23;54.08;99924.06;5065724;28;9195;-79
2022/10/19 09:19:15;;;;;;;;;67.00;52.67;;;;;18.53;53.01;99918.00;5047554;28;9164;-79
2022/10/19 09:21:48;;;;;;;;;57.50;47.00;;;;;18.81;52.23;99920.75;5012427;28;9499;-79
2022/10/19 09:24:28;;;;;;;;;63.33;51.33;;;;;19.28;51.35;99919.38;5048368;28;9591;-79
2022/10/19 09:27:00;;;;;;;;;71.00;56.25;;;;;18.95;52.42;99928.31;5047220;28;9262;-78
2022/10/19 09:29:37;;;;;;;;;68.50;54.25;;;;;18.60;53.47;99927.47;5044766;28;9648;-79
2022/10/19 09:32:25;;;;;;;;;65.00;52.00;;;;;18.95;52.85;99921.25;5047868;28;9461;-79
2022/10/19 09:34:59;;;;;;;;;64.33;52.00;;;;;19.14;52.72;99923.34;5030973;28;9317;-80
2022/10/19 09:37:29;;;;;;;;;67.00;53.33;;;;;19.55;51.57;99923.88;5047206;28;10391;-81
2022/10/19 09:40:03;;;;;;;;;65.00;52.67;;;;;19.88;51.20;99913.16;5014214;28;9310;-78
2022/10/19 09:42:32;;;;;;;;;62.67;49.33;;;;;19.70;50.13;99915.44;5046500;28;9445;-80
2022/10/19 09:45:13;;;;;;;;;62.00;49.50;;;;;20.12;49.40;99911.47;5045892;28;9204;-79
2022/10/19 09:47:47;;;;;;;;;62.00;49.25;;;;;20.52;48.19;99902.13;5047389;28;8849;-78
2022/10/19 09:50:19;;;;;;;;;58.75;48.75;;;;;20.51;47.02;99900.38;5046662;28;8877;-77
2022/10/19 09:52:48;;;;;;;;;58.00;47.67;;;;;20.15;48.29;99896.34;5046933;28;8869;-79
2022/10/19 09:55:25;;;;;;;;;62.33;50.00;;;;;19.90;49.30;99898.06;5056388;28;8963;-79
2022/10/19 09:58:01;;;;;;;;;63.00;50.33;;;;;20.18;47.37;99888.28;5046347;28;9097;-80
2022/10/19 10:00:36;;;;;;;;;61.33;49.00;;;;;19.77;47.85;99898.50;5064557;28;9163;-79
2022/10/19 10:03:07;;;;;;;;;54.50;45.00;;;;;20.25;47.56;99894.25;5044336;28;9013;-79
2022/10/19 10:05:38;;;;;;;;;65.00;51.50;;;;;19.88;47.28;99898.13;5048023;28;9621;-80
2022/10/19 10:08:14;;;;;;;;;57.75;47.00;;;;;19.95;47.22;99886.41;4996333;28;9761;-79
2022/10/19 10:10:46;;;;;;;;;60.00;49.50;;;;;20.03;47.29;99891.44;5050835;28;8988;-78
2022/10/19 10:13:18;;;;;;;;;58.33;48.33;;;;;19.89;47.91;99896.38;5047646;28;8876;-81
2022/10/19 10:15:51;;;;;;;;;55.00;46.00;;;;;19.79;47.01;99887.84;5063958;28;9230;-79
2022/10/19 10:18:23;;;;;;;;;56.50;46.00;;;;;19.99;47.10;99898.63;5063810;28;8901;-77
2022/10/19 10:21:03;;;;;;;;;56.75;46.25;;;;;20.51;46.20;99895.09;5047515;28;8877;-78
2022/10/19 10:23:36;;;;;;;;;50.00;42.00;;;;;20.76;45.30;99888.03;5010182;28;8928;-79
2022/10/19 10:26:17;;;;;;;;;54.50;44.25;;;;;20.94;43.96;99880.28;5062224;28;8884;-81
2022/10/19 10:28:50;;;;;;;;;53.50;44.50;;;;;20.23;45.09;99893.44;5045968;28;8891;-81
2022/10/19 10:31:23;;;;;;;;;56.75;45.25;;;;;19.80;45.87;99881.63;4996231;28;10299;-79
2022/10/19 10:33:57;;;;;;;;;53.75;44.75;;;;;19.96;45.64;99881.97;5029213;28;8869;-78
2022/10/19 10:36:44;;;;;;;;;54.75;44.50;;;;;19.97;46.02;99884.59;5045325;28;8876;-80
2022/10/19 10:39:17;;;;;;;;;54.00;44.00;;;;;19.94;45.92;99882.03;5045287;28;8841;-81
2022/10/19 10:41:48;;;;;;;;;52.00;43.00;;;;;19.92;44.97;99875.06;5045171;28;8872;-81
2022/10/19 10:44:21;;;;;;;;;56.00;45.67;;;;;20.02;45.52;99872.06;5046083;28;9583;-80
2022/10/19 10:46:55;;;;;;;;;52.25;43.50;;;;;20.50;44.84;99869.53;5028783;28;8940;-81
2022/10/19 10:49:28;;;;;;;;;56.75;45.25;;;;;20.66;43.62;99875.16;5045664;28;8885;-77
2022/10/19 10:52:01;;;;;;;;;53.75;43.75;;;;;20.00;43.64;99875.66;5029005;28;8841;-78
2022/10/19 10:54:32;;;;;;;;;52.50;43.75;;;;;19.86;43.82;99871.69;5029436;28;8877;-78
2022/10/19 10:57:12;;;;;;;;;52.75;44.50;;;;;20.13;43.86;99855.81;5046441;28;8848;-78
2022/10/19 10:59:54;;;;;;;;;54.25;45.00;;;;;20.20;44.32;99861.75;5046015;28;8950;-78
2022/10/19 11:02:31;;;;;;;;;52.50;44.25;;;;;20.43;43.70;99856.50;5047282;28;8849;-79
2022/10/19 11:05:07;;;;;;;;;51.50;42.25;;;;;20.89;42.59;99858.38;5028912;28;8856;-76
2022/10/19 11:07:40;;;;;;;;;53.00;43.75;;;;;21.21;42.09;99851.84;5028505;28;8861;-79
2022/10/19 11:10:20;;;;;;;;;49.50;41.75;;;;;21.24;41.34;99843.75;5030491;28;8999;-80
2022/10/19 11:12:55;;;;;;;;;46.75;39.00;;;;;21.46;41.55;99843.81;5033334;28;8881;-79
2022/10/19 11:15:27;;;;;;;;;48.50;41.50;;;;;21.57;40.58;99840.72;5015585;28;8853;-77
2022/10/19 11:18:08;;;;;;;;;46.50;39.25;;;;;21.07;40.55;99840.91;5056136;28;8849;-77
2022/10/19 11:20:44;;;;;;;;;47.25;39.25;;;;;21.57;40.44;99838.91;5061085;28;8885;-78
2022/10/19 11:23:19;;;;;;;;;51.00;41.50;;;;;21.06;41.08;99847.13;5054914;28;8845;-78
2022/10/19 11:26:03;;;;;;;;;45.50;38.50;;;;;21.15;40.43;99828.22;5051192;28;8863;-79
2022/10/19 11:28:48;;;;;;;;;50.50;42.00;;;;;21.05;41.10;99840.97;4986190;28;8856;-79
2022/10/19 11:31:22;;;;;;;;;48.75;40.25;;;;;20.83;41.19;99827.66;5049485;28;8938;-81
2022/10/19 11:34:00;;;;;;;;;47.00;40.25;;;;;20.87;41.80;99831.97;5017285;28;8860;-77
2022/10/19 11:36:46;;;;;;;;;48.00;41.00;;;;;20.74;41.89;99825.41;5034224;28;8865;-79
2022/10/19 11:39:35;;;;;;;;;44.75;37.75;;;;;20.75;41.82;99827.09;5033198;28;8857;-79
2022/10/19 11:42:12;;;;;;;;;45.00;38.75;;;;;21.13;41.29;99815.00;5033072;28;10019;-79
2022/10/19 11:44:53;;;;;;;;;44.50;38.50;;;;;21.61;40.54;99818.44;5050486;28;8860;-78
2022/10/19 11:47:35;;;;;;;;;42.25;36.25;;;;;21.36;41.13;99810.56;5065704;28;9727;-79